Time;durP1;ratioP1;P1;durP2;ratioP2;P2;SDS_P1;SDS_P2;PMS_P1;PMS_P2;Temp;Humidity;BMP_temperature;BMP_pressure;BME280_temperature;BME280_humidity;BME280_pressure;Samples;Min_cycle;Max_cycle;Signal;HPM_P1;HPM_P2
2022/04/02 00:02:34;;;;;;;;;14.67;12.67;;;;;2.84;100.00;101059.78;6230269;22;46632;-87
2022/04/02 00:05:05;;;;;;;;;23.33;17.33;;;;;2.92;100.00;101051.72;6256452;22;44762;-86
2022/04/02 00:10:35;;;;;;;;;22.33;20.33;;;;;2.91;100.00;101055.25;6317379;22;45132;-86
2022/04/02 00:13:01;;;;;;;;;27.33;21.00;;;;;2.86;100.00;101047.50;6293179;22;46674;-86
2022/04/02 00:15:27;;;;;;;;;24.67;21.67;;;;;2.78;100.00;101045.09;6316635;22;44700;-84
2022/04/02 00:17:52;;;;;;;;;21.67;20.33;;;;;2.78;100.00;101060.84;6288768;22;44795;-85
2022/04/02 00:20:18;;;;;;;;;20.33;17.33;;;;;2.73;100.00;101052.25;6285909;22;44808;-86
2022/04/02 00:23:35;;;;;;;;;13.00;7.67;;;;;2.75;100.00;101057.44;6307740;22;45305;-85
2022/04/02 00:25:30;;;;;;;;;13.00;12.33;;;;;2.72;100.00;101042.66;6321057;22;44784;-84
2022/04/02 00:27:55;;;;;;;;;21.67;16.33;;;;;2.69;100.00;101068.13;6327756;22;44622;-85
2022/04/02 00:30:21;;;;;;;;;17.33;16.00;;;;;2.71;100.00;101059.31;6324623;22;44726;-85
2022/04/02 00:32:47;;;;;;;;;15.33;13.67;;;;;2.67;100.00;101044.56;6294322;22;46961;-83
2022/04/02 00:35:12;;;;;;;;;23.67;16.67;;;;;2.67;100.00;101069.94;6298148;22;44666;-84
2022/04/02 00:37:37;;;;;;;;;15.67;11.33;;;;;2.63;100.00;101052.56;6321907;22;44771;-83
2022/04/02 00:40:03;;;;;;;;;7.00;6.33;;;;;2.57;100.00;101057.09;6299780;22;44741;-84
2022/04/02 00:42:29;;;;;;;;;17.00;15.00;;;;;2.57;100.00;101045.75;6326554;22;45186;-83
2022/04/02 00:44:54;;;;;;;;;12.33;10.33;;;;;2.56;100.00;101054.50;6299095;22;45427;-83
2022/04/02 00:47:20;;;;;;;;;13.00;13.00;;;;;2.58;100.00;101034.34;6326024;22;45308;-83
2022/04/02 00:49:47;;;;;;;;;11.00;9.33;;;;;2.61;100.00;101044.75;6325782;22;44697;-85
2022/04/02 00:52:13;;;;;;;;;11.00;9.33;;;;;2.63;100.00;101047.31;6323908;22;45213;-83
2022/04/02 00:54:39;;;;;;;;;8.00;8.00;;;;;2.62;100.00;101035.13;6325609;22;44724;-85
2022/04/02 00:57:06;;;;;;;;;12.00;10.00;;;;;2.60;100.00;101044.78;6299752;22;44635;-83
2022/04/02 00:59:31;;;;;;;;;8.00;6.33;;;;;2.57;100.00;101046.59;6329967;22;44550;-84
2022/04/02 01:01:57;;;;;;;;;10.00;10.00;;;;;2.55;100.00;101045.75;6329989;22;44942;-86
2022/04/02 01:04:22;;;;;;;;;9.33;9.33;;;;;2.60;100.00;101052.66;6289708;22;44644;-85
2022/04/02 01:06:48;;;;;;;;;7.67;6.67;;;;;2.58;100.00;101037.81;6312504;22;44780;-84
2022/04/02 01:09:14;;;;;;;;;8.33;7.67;;;;;2.59;100.00;101025.56;6314328;22;45100;-84
2022/04/02 01:11:42;;;;;;;;;6.33;6.00;;;;;2.56;100.00;101046.63;6316007;22;45025;-85
2022/04/02 01:14:08;;;;;;;;;4.00;4.00;;;;;2.54;100.00;101044.06;6312599;22;44846;-83
2022/04/02 01:16:34;;;;;;;;;8.00;6.33;;;;;2.51;100.00;101031.03;6308962;22;44796;-83
2022/04/02 01:19:01;;;;;;;;;11.00;7.00;;;;;2.53;100.00;101046.72;6280304;22;44926;-84
2022/04/02 01:21:28;;;;;;;;;6.00;5.33;;;;;2.47;100.00;101020.69;6279786;22;45706;-84
2022/04/02 01:23:55;;;;;;;;;11.00;6.00;;;;;2.46;100.00;101039.94;6309885;22;45405;-84
2022/04/02 01:26:20;;;;;;;;;7.00;4.50;;;;;2.47;100.00;101033.81;6279721;22;45426;-83
2022/04/02 01:28:53;;;;;;;;;11.33;10.00;;;;;2.43;100.00;101045.28;6278964;22;45017;-83
2022/04/02 01:31:21;;;;;;;;;8.33;8.33;;;;;2.42;100.00;101054.91;6281195;22;45611;-83
2022/04/02 01:33:48;;;;;;;;;7.67;7.67;;;;;2.42;100.00;101036.56;6309721;22;44715;-83
2022/04/02 01:36:14;;;;;;;;;10.33;9.67;;;;;2.38;100.00;101036.69;6311931;22;44795;-83
2022/04/02 01:38:39;;;;;;;;;4.33;4.33;;;;;2.36;100.00;101035.84;6308760;22;44778;-81
2022/04/02 01:41:05;;;;;;;;;6.00;6.00;;;;;2.34;100.00;101053.41;6309128;22;44857;-83
2022/04/02 01:43:31;;;;;;;;;2.33;2.00;;;;;2.30;100.00;101045.59;6308632;22;44760;-84
2022/04/02 01:45:58;;;;;;;;;8.33;8.33;;;;;2.28;100.00;101044.81;6278365;22;44847;-82
2022/04/02 01:48:24;;;;;;;;;4.33;4.33;;;;;2.28;100.00;101062.28;6307159;22;45159;-83
2022/04/02 01:50:51;;;;;;;;;6.00;6.00;;;;;2.27;100.00;101066.69;6286064;22;46901;-84
2022/04/02 01:53:18;;;;;;;;;8.00;7.33;;;;;2.26;100.00;101053.59;6314697;22;44684;-84
2022/04/02 01:55:44;;;;;;;;;4.67;4.33;;;;;2.21;100.00;101069.44;6285480;22;44753;-84
2022/04/02 01:58:13;;;;;;;;;6.00;4.33;;;;;2.27;100.00;101065.78;6284562;22;45199;-83
2022/04/02 02:00:39;;;;;;;;;10.67;7.33;;;;;2.21;100.00;101081.69;6313681;22;45337;-84
2022/04/02 02:03:06;;;;;;;;;2.00;2.00;;;;;2.19;100.00;101065.16;6310704;22;44728;-83
2022/04/02 02:05:33;;;;;;;;;6.00;3.67;;;;;2.15;100.00;101072.25;6284137;22;45171;-84
2022/04/02 02:07:59;;;;;;;;;8.67;7.33;;;;;2.13;100.00;101076.69;6312712;22;44784;-84
2022/04/02 02:10:24;;;;;;;;;10.33;9.33;;;;;2.12;100.00;101074.94;6313808;22;44861;-84
2022/04/02 02:12:50;;;;;;;;;6.00;2.00;;;;;2.11;100.00;101078.47;6310993;22;44657;-83
2022/04/02 02:15:18;;;;;;;;;7.00;5.00;;;;;2.12;100.00;101074.94;6307472;22;44826;-84
2022/04/02 02:17:45;;;;;;;;;10.67;4.67;;;;;2.07;100.00;101082.06;6307067;22;44807;-83
2022/04/02 02:20:12;;;;;;;;;8.00;6.00;;;;;2.08;100.00;101070.69;6307836;22;45219;-82
2022/04/02 02:22:38;;;;;;;;;5.00;5.00;;;;;2.06;100.00;101078.59;6308013;22;45443;-82
2022/04/02 02:25:05;;;;;;;;;8.67;5.33;;;;;2.03;100.00;101072.56;6287392;22;44754;-83
2022/04/02 02:27:31;;;;;;;;;7.67;5.33;;;;;2.01;100.00;101075.22;6289762;22;44849;-83
2022/04/02 02:29:56;;;;;;;;;10.33;7.33;;;;;1.99;100.00;101066.56;6285560;22;46355;-85
2022/04/02 02:32:21;;;;;;;;;5.00;5.00;;;;;1.98;100.00;101080.56;6309011;22;45242;-83
2022/04/02 02:37:31;;;;;;;;;6.67;6.67;;;;;1.94;100.00;101065.81;6307569;22;44701;-84
2022/04/02 02:39:56;;;;;;;;;8.00;8.00;;;;;1.93;100.00;101071.06;6278958;22;45198;-84
2022/04/02 02:42:22;;;;;;;;;7.00;7.00;;;;;1.90;100.00;101081.66;6279479;22;45163;-83
2022/04/02 02:44:47;;;;;;;;;6.00;6.00;;;;;1.86;100.00;101073.00;6307285;22;45254;-84
2022/04/02 02:47:13;;;;;;;;;6.00;6.00;;;;;1.87;100.00;101094.81;6279299;22;44851;-83
2022/04/02 02:49:38;;;;;;;;;6.00;4.33;;;;;1.81;100.00;101080.13;6307731;22;44931;-84
2022/04/02 02:52:04;;;;;;;;;10.00;10.00;;;;;1.78;100.00;101106.38;6305251;22;44725;-83
2022/04/02 02:54:30;;;;;;;;;7.00;6.00;;;;;1.76;100.00;101092.47;6281674;22;44788;-84
2022/04/02 02:56:55;;;;;;;;;10.00;5.67;;;;;1.77;100.00;101099.44;6284290;22;44780;-83
2022/04/02 02:59:21;;;;;;;;;7.00;7.00;;;;;1.75;100.00;101093.38;6317324;22;45086;-83
2022/04/02 03:01:46;;;;;;;;;10.00;7.67;;;;;1.75;100.00;101101.25;6282636;22;44765;-83
2022/04/02 03:04:11;;;;;;;;;4.00;4.00;;;;;1.70;100.00;101101.34;6280101;22;45119;-82
2022/04/02 03:06:37;;;;;;;;;10.67;10.00;;;;;1.71;100.00;101091.72;6279719;22;44824;-83
2022/04/02 03:09:03;;;;;;;;;8.00;6.00;;;;;1.68;100.00;101100.50;6312278;22;45142;-82
2022/04/02 03:11:29;;;;;;;;;9.33;7.00;;;;;1.62;100.00;101102.44;6311986;22;44764;-82
2022/04/02 03:13:56;;;;;;;;;11.00;9.67;;;;;1.58;100.00;101117.34;6315329;22;45151;-83
2022/04/02 03:16:21;;;;;;;;;10.33;8.33;;;;;1.59;100.00;101105.97;6312832;22;44749;-85
2022/04/02 03:18:47;;;;;;;;;6.67;5.67;;;;;1.56;100.00;101126.16;6283883;22;46284;-83
2022/04/02 03:21:12;;;;;;;;;5.00;5.00;;;;;1.54;100.00;101108.69;6309029;22;44658;-83
2022/04/02 03:23:38;;;;;;;;;14.67;7.00;;;;;1.51;100.00;101119.25;6309312;22;45313;-84
2022/04/02 03:26:04;;;;;;;;;11.33;10.00;;;;;1.50;100.00;101106.22;6284807;22;44866;-85
2022/04/02 03:28:30;;;;;;;;;9.00;9.00;;;;;1.48;100.00;101116.69;6315180;22;45215;-83
2022/04/02 03:30:55;;;;;;;;;13.67;11.67;;;;;1.46;100.00;101118.50;6310203;22;44700;-83
2022/04/02 03:33:21;;;;;;;;;13.67;10.00;;;;;1.46;100.00;101113.28;6311483;22;44815;-83
2022/04/02 03:35:47;;;;;;;;;14.00;11.00;;;;;1.44;100.00;101120.28;6279355;22;44975;-84
2022/04/02 03:38:12;;;;;;;;;10.00;8.00;;;;;1.40;100.00;101141.31;6306848;22;45234;-83
2022/04/02 03:40:38;;;;;;;;;12.00;7.00;;;;;1.41;100.00;101104.66;6307161;22;45195;-81
2022/04/02 03:43:04;;;;;;;;;12.33;12.33;;;;;1.39;100.00;101113.44;6307942;22;44709;-84
2022/04/02 03:45:30;;;;;;;;;9.33;9.33;;;;;1.38;100.00;101115.19;6308782;22;44614;-83
2022/04/02 03:47:56;;;;;;;;;6.67;6.67;;;;;1.39;100.00;101118.66;6313664;22;45267;-85
2022/04/02 03:50:22;;;;;;;;;13.33;10.33;;;;;1.35;100.00;101122.25;6326079;22;44615;-84
2022/04/02 03:52:48;;;;;;;;;10.33;9.33;;;;;1.35;100.00;101119.63;6325105;22;44637;-83
2022/04/02 03:55:13;;;;;;;;;11.00;11.00;;;;;1.35;100.00;101125.72;6313854;22;45328;-83
2022/04/02 03:57:44;;;;;;;;;12.00;11.67;;;;;1.34;100.00;101131.00;6311770;22;45140;-84
2022/04/02 04:00:10;;;;;;;;;8.33;5.00;;;;;1.31;100.00;101123.25;6313080;22;45432;-84
2022/04/02 04:02:37;;;;;;;;;10.67;8.67;;;;;1.28;100.00;101151.19;6312695;22;45218;-84
2022/04/02 04:05:05;;;;;;;;;6.67;6.00;;;;;1.32;100.00;101124.94;6309194;22;44716;-83
2022/04/02 04:07:30;;;;;;;;;13.33;10.33;;;;;1.33;100.00;101127.53;6307324;22;45231;-84
2022/04/02 04:09:56;;;;;;;;;7.33;7.33;;;;;1.28;100.00;101150.31;6280837;22;44815;-84
2022/04/02 04:12:21;;;;;;;;;13.33;11.33;;;;;1.32;100.00;101135.41;6317251;22;45191;-83
2022/04/02 04:14:46;;;;;;;;;10.33;10.33;;;;;1.32;100.00;101135.41;6315215;22;44716;-84
2022/04/02 04:17:13;;;;;;;;;9.33;8.00;;;;;1.26;100.00;101141.66;6310456;22;45361;-85
2022/04/02 04:19:38;;;;;;;;;15.67;8.33;;;;;1.31;100.00;101133.69;6309598;22;45264;-84
2022/04/02 04:22:06;;;;;;;;;13.33;11.67;;;;;1.27;100.00;101141.63;6310109;22;45314;-83
2022/04/02 04:24:32;;;;;;;;;13.33;11.67;;;;;1.27;100.00;101153.84;6284720;22;45369;-83
2022/04/02 04:26:58;;;;;;;;;18.67;12.00;;;;;1.27;100.00;101151.22;6313846;22;45033;-84
2022/04/02 04:29:23;;;;;;;;;10.67;10.67;;;;;1.26;100.00;101163.44;6314586;22;44649;-83
2022/04/02 04:31:48;;;;;;;;;9.33;9.33;;;;;1.24;100.00;101164.34;6285837;22;44974;-83
2022/04/02 04:34:14;;;;;;;;;10.00;10.00;;;;;1.24;100.00;101154.75;6309033;22;44783;-85
2022/04/02 04:36:40;;;;;;;;;11.67;10.33;;;;;1.27;100.00;101162.53;6311252;22;45114;-84
2022/04/02 04:39:06;;;;;;;;;13.00;10.67;;;;;1.26;100.00;101166.06;6316598;22;44752;-84
2022/04/02 04:41:33;;;;;;;;;10.00;10.00;;;;;1.28;100.00;101169.50;6316045;22;44729;-84
2022/04/02 04:43:58;;;;;;;;;12.67;8.33;;;;;1.28;100.00;101168.63;6311537;22;44709;-84
2022/04/02 04:46:24;;;;;;;;;10.00;10.00;;;;;1.28;100.00;101166.03;6280803;22;45446;-84
2022/04/02 04:48:49;;;;;;;;;18.67;12.33;;;;;1.27;100.00;101175.63;6281275;22;44746;-85
2022/04/02 04:51:15;;;;;;;;;7.00;7.00;;;;;1.29;100.00;101191.28;6280204;22;44855;-84
2022/04/02 04:53:40;;;;;;;;;12.33;10.00;;;;;1.30;100.00;101172.06;6278926;22;45158;-84
2022/04/02 04:56:07;;;;;;;;;12.33;8.67;;;;;1.28;100.00;101179.09;6282431;22;45921;-84
2022/04/02 04:58:33;;;;;;;;;14.67;12.33;;;;;1.26;100.00;101188.75;6315364;22;44731;-83
2022/04/02 05:00:59;;;;;;;;;7.00;7.00;;;;;1.23;100.00;101186.19;6286330;22;44660;-84
2022/04/02 05:03:25;;;;;;;;;10.67;10.67;;;;;1.21;100.00;101199.31;6311289;22;44849;-84
2022/04/02 05:05:56;;;;;;;;;12.33;10.00;;;;;1.23;100.00;101194.03;6283613;22;46780;-83
2022/04/02 05:08:23;;;;;;;;;9.00;7.00;;;;;1.22;100.00;101181.88;6311082;22;44783;-84
2022/04/02 05:10:50;;;;;;;;;11.67;9.33;;;;;1.26;100.00;101181.75;6309521;22;45272;-83
2022/04/02 05:13:16;;;;;;;;;13.67;13.67;;;;;1.26;100.00;101188.75;6280312;22;44869;-82
2022/04/02 05:15:42;;;;;;;;;15.00;12.67;;;;;1.25;100.00;101192.25;6279992;22;45418;-83
2022/04/02 05:18:09;;;;;;;;;14.67;14.00;;;;;1.25;100.00;101194.88;6278675;22;45410;-83
2022/04/02 05:20:36;;;;;;;;;6.67;5.33;;;;;1.25;100.00;101202.72;6307706;22;45186;-84
2022/04/02 05:23:02;;;;;;;;;13.00;9.00;;;;;1.26;100.00;101192.22;6307366;22;44647;-84
2022/04/02 05:25:27;;;;;;;;;9.67;8.33;;;;;1.23;100.00;101226.31;6308247;22;45135;-84
2022/04/02 05:27:54;;;;;;;;;10.00;8.33;;;;;1.27;100.00;101208.78;6313244;22;44650;-84
2022/04/02 05:30:20;;;;;;;;;10.33;10.33;;;;;1.23;100.00;101208.00;6313406;22;45225;-84
2022/04/02 05:32:46;;;;;;;;;13.67;11.33;;;;;1.24;100.00;101208.84;6315117;22;44807;-86
2022/04/02 05:35:11;;;;;;;;;19.00;13.33;;;;;1.24;100.00;101209.72;6307032;22;46224;-84
2022/04/02 05:37:43;;;;;;;;;7.00;6.00;;;;;1.23;100.00;101218.47;6306592;22;44828;-84
2022/04/02 05:40:09;;;;;;;;;7.00;2.33;;;;;1.26;100.00;101214.94;6305718;22;45194;-84
2022/04/02 05:42:34;;;;;;;;;8.00;6.00;;;;;1.26;100.00;101228.88;6280310;22;44861;-84
2022/04/02 05:45:00;;;;;;;;;14.00;13.33;;;;;1.26;100.00;101233.25;6285233;22;46537;-84
2022/04/02 05:47:25;;;;;;;;;13.33;12.33;;;;;1.26;100.00;101210.56;6313853;22;44711;-85
2022/04/02 05:49:52;;;;;;;;;9.67;9.67;;;;;1.26;100.00;101225.41;6283650;22;44809;-86
2022/04/02 05:52:17;;;;;;;;;12.33;11.00;;;;;1.32;100.00;101212.19;6306477;22;44835;-84
2022/04/02 05:54:43;;;;;;;;;10.33;8.67;;;;;1.36;100.00;101223.44;6308867;22;45352;-84
2022/04/02 05:57:09;;;;;;;;;7.33;7.33;;;;;1.38;100.00;101225.13;6309995;22;44738;-85
2022/04/02 05:59:35;;;;;;;;;7.33;5.67;;;;;1.44;100.00;101255.53;6311220;22;44689;-84
2022/04/02 06:02:01;;;;;;;;;10.00;10.00;;;;;1.52;100.00;101237.91;6314195;22;44665;-84
2022/04/02 06:04:28;;;;;;;;;9.00;9.00;;;;;1.54;100.00;101255.31;6312044;22;45000;-84
2022/04/02 06:06:53;;;;;;;;;11.33;10.00;;;;;1.55;100.00;101253.56;6310004;22;45262;-84
2022/04/02 06:09:19;;;;;;;;;18.67;12.33;;;;;1.65;100.00;101241.16;6282047;22;45136;-85
2022/04/02 06:11:45;;;;;;;;;10.33;10.33;;;;;1.72;100.00;101254.06;6308668;22;44835;-84
2022/04/02 06:14:13;;;;;;;;;7.33;7.00;;;;;1.78;100.00;101246.06;6280418;22;46502;-83
2022/04/02 06:16:39;;;;;;;;;11.00;11.00;;;;;1.85;100.00;101252.03;6308264;22;44735;-83
2022/04/02 06:19:04;;;;;;;;;13.00;11.00;;;;;1.89;100.00;101244.97;6280436;22;44728;-83
2022/04/02 06:21:30;;;;;;;;;12.33;9.00;;;;;1.88;100.00;101257.19;6309186;22;44763;-84
2022/04/02 06:23:55;;;;;;;;;9.33;9.33;;;;;1.96;100.00;101260.50;6281540;22;46102;-85
2022/04/02 06:26:21;;;;;;;;;12.00;11.00;;;;;2.05;100.00;101270.78;6279295;22;44807;-82
2022/04/02 06:28:51;;;;;;;;;14.33;12.33;;;;;2.13;100.00;101269.72;6280145;22;45211;-82
2022/04/02 06:31:46;;;;;;;;;9.33;7.33;;;;;2.04;100.00;101278.69;6278323;22;44832;-82
2022/04/02 06:34:13;;;;;;;;;12.67;11.67;;;;;2.20;100.00;101273.94;6283389;22;47157;-83
2022/04/02 06:36:38;;;;;;;;;14.67;14.67;;;;;2.20;100.00;101281.78;6286431;22;44744;-84
2022/04/02 06:39:04;;;;;;;;;13.33;10.67;;;;;2.16;100.00;101285.38;6288260;22;45338;-83
2022/04/02 06:41:36;;;;;;;;;9.00;7.00;;;;;2.17;100.00;101274.84;6311291;22;44737;-83
2022/04/02 06:44:13;;;;;;;;;11.67;8.00;;;;;2.29;100.00;101266.72;6306491;22;45344;-83
2022/04/02 06:46:41;;;;;;;;;8.67;8.67;;;;;2.40;100.00;101284.78;6305152;22;45265;-84
2022/04/02 06:49:07;;;;;;;;;9.00;9.00;;;;;2.47;100.00;101294.25;6309152;22;44616;-85
2022/04/02 06:51:33;;;;;;;;;5.67;4.67;;;;;2.58;100.00;101288.72;6307358;22;44789;-83
2022/04/02 06:53:59;;;;;;;;;12.00;9.67;;;;;2.62;100.00;101293.00;6281072;22;46610;-83
2022/04/02 06:56:24;;;;;;;;;11.67;8.33;;;;;2.50;100.00;101291.53;6314413;22;45416;-81
2022/04/02 06:58:49;;;;;;;;;12.00;11.00;;;;;2.55;100.00;101286.16;6307175;22;45348;-81
2022/04/02 07:01:15;;;;;;;;;15.00;11.00;;;;;2.49;100.00;101291.56;6306761;22;45320;-82
2022/04/02 07:03:49;;;;;;;;;12.33;8.67;;;;;2.42;100.00;101305.72;6294765;22;45277;-86
2022/04/02 07:06:14;;;;;;;;;6.67;6.00;;;;;2.59;100.00;101300.94;6276482;22;45156;-84
2022/04/02 07:08:39;;;;;;;;;10.67;9.33;;;;;2.65;100.00;101300.78;6277614;22;44906;-84
2022/04/02 07:11:17;;;;;;;;;7.00;4.33;;;;;2.77;100.00;101305.72;6285652;22;44848;-84
2022/04/02 07:13:42;;;;;;;;;8.00;7.00;;;;;2.84;100.00;101302.03;6282820;22;45219;-83
2022/04/02 07:16:08;;;;;;;;;6.00;6.00;;;;;2.84;100.00;101311.66;6282531;22;45324;-83
2022/04/02 07:18:35;;;;;;;;;7.33;3.00;;;;;2.83;100.00;101302.94;6281955;22;44734;-85
2022/04/02 07:21:02;;;;;;;;;12.00;9.33;;;;;2.81;100.00;101307.38;6276507;22;44759;-84
2022/04/02 07:23:29;;;;;;;;;12.00;9.33;;;;;2.89;100.00;101328.16;6275711;22;47197;-83
2022/04/02 07:25:55;;;;;;;;;5.33;5.33;;;;;3.03;100.00;101341.78;6276876;22;45399;-84
2022/04/02 07:28:23;;;;;;;;;9.67;8.33;;;;;3.04;100.00;101338.25;6287826;22;44681;-85
2022/04/02 07:30:50;;;;;;;;;7.67;7.33;;;;;3.03;100.00;101335.66;6277854;22;44836;-85
2022/04/02 07:33:16;;;;;;;;;14.00;9.00;;;;;3.09;100.00;101318.00;6279254;22;45200;-83
2022/04/02 07:35:52;;;;;;;;;11.33;8.00;;;;;3.11;100.00;101346.84;6282240;22;44697;-84
2022/04/02 07:38:36;;;;;;;;;8.67;8.67;;;;;3.08;100.00;101328.53;6284188;22;44854;-85
2022/04/02 07:41:32;;;;;;;;;11.00;8.00;;;;;3.32;100.00;101353.28;6282458;22;45186;-85
2022/04/02 07:44:16;;;;;;;;;8.67;6.67;;;;;3.30;100.00;101324.44;6282756;22;45012;-86
2022/04/02 07:46:43;;;;;;;;;9.00;8.67;;;;;3.25;100.00;101336.84;6284385;22;45119;-85
2022/04/02 07:49:12;;;;;;;;;9.00;8.00;;;;;3.32;100.00;101369.03;6284188;22;44825;-84
2022/04/02 07:51:39;;;;;;;;;12.00;8.00;;;;;3.34;100.00;101326.09;6287964;22;44830;-86
2022/04/02 07:54:06;;;;;;;;;8.00;7.67;;;;;3.46;100.00;101337.13;6284616;22;45367;-84
2022/04/02 07:56:37;;;;;;;;;4.67;4.67;;;;;3.50;100.00;101333.53;6279747;22;45496;-83
2022/04/02 07:59:13;;;;;;;;;6.00;6.00;;;;;3.52;100.00;101323.81;6277583;22;44704;-85
2022/04/02 08:01:40;;;;;;;;;5.33;5.33;;;;;3.59;100.00;101342.00;6275752;22;44822;-85
2022/04/02 08:04:06;;;;;;;;;8.67;8.67;;;;;3.75;100.00;101344.19;6280473;22;45128;-85
2022/04/02 08:06:32;;;;;;;;;7.33;7.00;;;;;3.91;100.00;101345.47;6256643;22;45140;-85
2022/04/02 08:08:59;;;;;;;;;7.67;7.00;;;;;4.07;100.00;101338.00;6249353;22;45266;-86
2022/04/02 08:11:26;;;;;;;;;8.67;8.67;;;;;4.10;100.00;101351.03;6246383;22;44797;-85
2022/04/02 08:13:52;;;;;;;;;8.67;8.67;;;;;4.06;100.00;101341.50;6246648;22;45440;-85
2022/04/02 08:16:19;;;;;;;;;9.00;7.67;;;;;3.97;100.00;101360.22;6246894;22;44737;-85
2022/04/02 08:18:47;;;;;;;;;14.00;9.67;;;;;3.93;100.00;101350.69;6248597;22;45466;-85
2022/04/02 08:21:13;;;;;;;;;8.67;7.67;;;;;4.09;100.00;101352.81;6245408;22;44946;-85
2022/04/02 08:23:39;;;;;;;;;6.67;6.67;;;;;4.18;100.00;101353.44;6248167;22;45320;-85
2022/04/02 08:26:56;;;;;;;;;8.00;8.00;;;;;4.26;100.00;101349.66;6247110;22;44670;-86
2022/04/02 08:29:22;;;;;;;;;9.00;8.33;;;;;4.34;100.00;101355.53;6192799;22;44813;-86
2022/04/02 08:32:10;;;;;;;;;8.33;7.33;;;;;4.13;100.00;101370.22;6219978;22;45517;-85
2022/04/02 08:35:00;;;;;;;;;6.00;2.67;;;;;4.14;100.00;101394.72;6190606;22;45295;-84
2022/04/02 08:37:29;;;;;;;;;6.67;6.00;;;;;4.05;100.00;101392.38;6216032;22;45489;-85
2022/04/02 08:40:25;;;;;;;;;7.00;7.00;;;;;4.21;100.00;101392.81;6232313;22;44735;-87
2022/04/02 08:43:15;;;;;;;;;6.67;6.00;;;;;4.24;100.00;101372.50;6200650;22;44886;-86
2022/04/02 08:46:18;;;;;;;;;4.00;2.00;;;;;4.39;100.00;101360.66;6220533;22;45521;-85
2022/04/02 08:48:53;;;;;;;;;7.67;7.00;;;;;4.57;100.00;101367.97;6159093;23;45487;-84
2022/04/02 08:51:40;;;;;;;;;0.67;0.67;;;;;4.67;100.00;101376.44;6158386;23;45297;-85
2022/04/02 08:54:14;;;;;;;;;6.00;3.00;;;;;4.63;100.00;101399.34;6162108;23;44777;-86
2022/04/02 08:56:48;;;;;;;;;5.33;4.00;;;;;4.61;100.00;101389.78;6162463;23;45445;-87
2022/04/02 08:59:34;;;;;;;;;5.67;3.33;;;;;4.74;100.00;101356.91;6132982;23;44664;-86
2022/04/02 09:02:30;;;;;;;;;3.33;3.33;;;;;4.69;100.00;101392.16;6151646;23;44864;-87
2022/04/02 09:05:30;;;;;;;;;5.00;2.33;;;;;4.80;100.00;101359.34;6158451;23;44794;-86
2022/04/02 09:08:01;;;;;;;;;5.33;5.33;;;;;4.93;100.00;101394.00;6195241;23;47128;-85
2022/04/02 09:10:42;;;;;;;;;5.00;5.00;;;;;4.72;100.00;101428.91;6197187;23;44752;-87
2022/04/02 09:13:28;;;;;;;;;3.67;3.67;;;;;4.83;100.00;101397.84;6167797;23;44640;-85
2022/04/02 09:16:11;;;;;;;;;4.00;2.00;;;;;4.84;100.00;101383.78;6183977;23;44834;-86
2022/04/02 09:18:39;;;;;;;;;6.33;5.33;;;;;4.92;100.00;101389.66;6183002;23;44996;-86
2022/04/02 09:21:41;;;;;;;;;5.33;5.33;;;;;4.89;100.00;101377.47;6182861;23;44788;-85
2022/04/02 09:25:01;;;;;;;;;5.67;5.67;;;;;5.02;100.00;101384.94;6160176;23;44689;-85
2022/04/02 09:27:39;;;;;;;;;7.33;7.00;;;;;5.13;100.00;101382.81;6275485;22;44784;-84
2022/04/02 09:30:23;;;;;;;;;7.00;7.00;;;;;5.33;100.00;101416.38;6277581;22;47153;-87
2022/04/02 09:33:30;;;;;;;;;8.33;7.00;;;;;5.30;99.37;101382.22;6274192;22;44881;-85
2022/04/02 09:36:10;;;;;;;;;7.00;7.00;;;;;5.66;99.34;101401.16;6275309;22;44786;-85
2022/04/02 09:39:43;;;;;;;;;4.33;4.33;;;;;5.72;96.94;101371.94;6275824;22;45364;-86
2022/04/02 09:42:50;;;;;;;;;8.33;8.33;;;;;5.81;94.01;101410.28;6184431;23;45191;-86
2022/04/02 09:45:49;;;;;;;;;4.00;4.00;;;;;5.66;96.78;101382.72;6188946;23;44754;-85
2022/04/02 09:48:26;;;;;;;;;9.00;6.67;;;;;5.68;94.55;101392.28;6191592;23;44742;-85
2022/04/02 09:50:59;;;;;;;;;2.00;2.00;;;;;5.84;97.74;101389.94;6196731;23;44712;-86
2022/04/02 09:53:40;;;;;;;;;8.67;6.33;;;;;5.94;91.65;101411.56;6189314;23;45034;-86
2022/04/02 09:56:40;;;;;;;;;6.33;6.33;;;;;5.89;90.03;101392.41;6151764;23;44756;-85
2022/04/02 09:59:32;;;;;;;;;11.00;8.00;;;;;5.96;89.91;101414.19;6140302;23;44594;-86
2022/04/02 10:02:05;;;;;;;;;5.67;3.00;;;;;5.90;85.70;101405.53;6115917;23;44863;-84
2022/04/02 10:04:48;;;;;;;;;6.67;6.67;;;;;5.78;87.17;101445.53;6141602;23;45274;-85
2022/04/02 10:07:56;;;;;;;;;4.75;2.50;;;;;5.82;82.03;101419.91;6140104;23;44759;-84
2022/04/02 10:10:28;;;;;;;;;9.67;8.33;;;;;5.88;91.24;101399.44;6088563;23;44747;-86
2022/04/02 10:12:55;;;;;;;;;5.00;5.00;;;;;5.98;85.73;101396.50;6110344;23;44657;-83
2022/04/02 10:15:27;;;;;;;;;4.33;2.33;;;;;6.11;87.54;101405.69;6114396;23;44932;-85
2022/04/02 10:17:53;;;;;;;;;6.33;6.33;;;;;6.22;73.83;101415.84;6102130;23;44673;-84
2022/04/02 10:20:28;;;;;;;;;11.67;9.67;;;;;6.31;87.87;101428.69;6054857;23;44756;-85
2022/04/02 10:23:12;;;;;;;;;5.33;4.33;;;;;6.17;72.67;101432.69;6023988;23;44804;-86
2022/04/02 10:25:55;;;;;;;;;2.00;2.00;;;;;6.06;78.92;101390.03;6054663;23;46830;-85
2022/04/02 10:28:28;;;;;;;;;4.33;4.33;;;;;6.35;79.67;101415.31;6032492;23;44673;-85
2022/04/02 10:30:57;;;;;;;;;8.00;8.00;;;;;6.69;74.06;101396.38;6049733;23;44760;-84
2022/04/02 10:33:30;;;;;;;;;10.33;9.00;;;;;6.78;77.86;101410.97;6046953;23;44720;-86
2022/04/02 10:35:56;;;;;;;;;6.33;6.00;;;;;6.95;71.91;101408.50;6106302;23;45295;-85
2022/04/02 10:38:39;;;;;;;;;4.00;4.00;;;;;7.14;73.14;101423.59;6105131;23;44761;-88
2022/04/02 10:41:28;;;;;;;;;7.33;6.00;;;;;6.78;73.46;101410.13;6076547;23;44738;-87
2022/04/02 10:44:00;;;;;;;;;1.00;1.00;;;;;6.84;71.77;101384.31;6071875;23;44878;-87
2022/04/02 10:46:29;;;;;;;;;6.00;6.00;;;;;6.95;75.17;101405.84;6097324;22;45624;-88
2022/04/02 10:49:00;;;;;;;;;6.00;3.00;;;;;6.92;78.15;101400.72;6251595;22;44662;-86
2022/04/02 10:51:29;;;;;;;;;4.50;4.50;;;;;6.59;72.83;101394.16;6247411;22;44791;-85
2022/04/02 10:54:07;;;;;;;;;3.50;3.50;;;;;6.35;72.41;101388.06;6249678;22;45308;-89
2022/04/02 10:56:53;;;;;;;;;5.67;5.00;;;;;6.03;71.58;101400.69;6247433;22;45234;-87
2022/04/02 10:59:20;;;;;;;;;9.33;9.33;;;;;6.29;84.30;101396.22;6249382;22;44728;-88
2022/04/02 11:01:52;;;;;;;;;8.33;6.00;;;;;6.57;75.71;101388.06;6254398;22;45301;-87
2022/04/02 11:04:27;;;;;;;;;4.50;4.50;;;;;6.49;65.18;101400.72;6253484;22;45196;-87
2022/04/02 11:06:53;;;;;;;;;3.25;2.00;;;;;6.46;66.16;101420.16;6253422;22;46164;-86
2022/04/02 11:09:29;;;;;;;;;5.25;5.25;;;;;6.50;66.70;101411.22;6262123;22;44684;-87
2022/04/02 11:12:06;;;;;;;;;4.00;4.00;;;;;6.48;63.17;101420.97;6259270;22;44723;-87
2022/04/02 11:14:45;;;;;;;;;8.33;6.00;;;;;6.63;80.90;101378.13;6257254;22;45210;-87
2022/04/02 11:17:31;;;;;;;;;8.67;4.00;;;;;6.66;68.68;101390.34;6254366;22;45285;-89
2022/04/02 11:20:18;;;;;;;;;7.67;4.67;;;;;6.75;69.16;101419.00;6257193;22;45223;-88
2022/04/02 11:22:59;;;;;;;;;0.00;0.00;;;;;6.92;69.74;101398.06;6254268;22;45208;-87
2022/04/02 11:25:35;;;;;;;;;6.00;6.00;;;;;7.29;73.12;101403.59;6251028;22;45269;-87
2022/04/02 11:28:11;;;;;;;;;6.00;4.00;;;;;7.39;72.53;101394.34;6248813;22;46676;-88
2022/04/02 11:31:03;;;;;;;;;4.00;4.00;;;;;7.41;67.44;101433.00;6252695;22;45427;-88
2022/04/02 11:33:32;;;;;;;;;4.00;4.00;;;;;7.21;66.40;101425.06;6249503;22;44729;-86
2022/04/02 11:36:06;;;;;;;;;4.67;2.00;;;;;7.22;77.02;101414.44;6222342;22;45422;-88
2022/04/02 11:39:02;;;;;;;;;6.33;3.00;;;;;7.42;77.59;101410.94;6246353;22;47248;-89
2022/04/02 11:41:32;;;;;;;;;3.00;2.25;;;;;7.17;58.01;101411.13;6250294;22;44704;-89
2022/04/02 11:44:14;;;;;;;;;9.25;7.00;;;;;7.25;65.92;101418.72;6254035;22;45208;-88
2022/04/02 11:46:53;;;;;;;;;8.75;7.25;;;;;7.50;74.66;101401.84;6255537;22;44723;-88